createdAt,value
2019-02-04T00:02:01.460Z,24.70
2019-02-04T00:04:31.535Z,24.90
2019-02-04T00:07:01.642Z,24.60
2019-02-04T00:09:33.244Z,25.53
2019-02-04T00:12:03.073Z,24.70
2019-02-04T00:14:33.057Z,23.20
2019-02-04T00:17:09.004Z,23.87
2019-02-04T00:19:38.809Z,23.43
2019-02-04T00:22:09.545Z,25.20
2019-02-04T00:24:38.949Z,24.73
2019-02-04T00:27:09.049Z,24.50
2019-02-04T00:29:38.655Z,24.87
2019-02-04T00:32:09.200Z,23.70
2019-02-04T00:34:38.608Z,24.13
2019-02-04T00:37:09.500Z,24.23
2019-02-04T00:39:38.912Z,25.60
2019-02-04T00:42:09.936Z,25.27
2019-02-04T00:44:43.116Z,24.50
2019-02-04T00:47:12.609Z,23.07
2019-02-04T00:49:42.533Z,25.33
2019-02-04T00:52:13.322Z,24.27
2019-02-04T00:54:42.774Z,24.70
2019-02-04T00:57:12.800Z,24.85
2019-02-04T00:59:45.944Z,25.00
2019-02-04T01:02:17.312Z,22.30
2019-02-04T01:04:46.752Z,22.73
2019-02-04T01:07:22.828Z,22.80
2019-02-04T01:09:52.734Z,24.27
2019-02-04T01:12:23.767Z,22.65
2019-02-04T01:14:54.013Z,21.93
2019-02-04T01:17:23.417Z,21.37
2019-02-04T01:19:52.901Z,21.77
2019-02-04T01:22:23.047Z,24.07
2019-02-04T01:24:53.576Z,24.10
2019-02-04T01:27:23.414Z,22.15
2019-02-04T01:29:52.793Z,24.20
2019-02-04T01:32:22.378Z,23.60
2019-02-04T01:34:52.535Z,24.10
2019-02-04T01:37:25.423Z,22.15
2019-02-04T01:39:55.669Z,23.77
2019-02-04T01:42:26.103Z,22.82
2019-02-04T01:44:56.943Z,22.90
2019-02-04T01:47:29.266Z,22.57
2019-02-04T01:49:59.483Z,23.37
2019-02-04T01:52:31.512Z,25.83
2019-02-04T01:55:01.592Z,23.23
2019-02-04T01:57:31.848Z,24.07
2019-02-04T02:00:01.229Z,24.47
2019-02-04T02:02:32.115Z,23.40
2019-02-04T02:05:02.127Z,25.87
2019-02-04T02:07:32.677Z,23.87
2019-02-04T02:10:03.451Z,24.30
2019-02-04T02:12:34.041Z,26.82
2019-02-04T02:15:06.454Z,24.80
2019-02-04T02:17:36.887Z,24.82
2019-02-04T02:20:09.156Z,24.93
2019-02-04T02:22:38.464Z,25.37
2019-02-04T02:25:09.076Z,23.97
2019-02-04T02:27:39.024Z,25.70
2019-02-04T02:30:14.129Z,25.00
2019-02-04T02:32:43.808Z,25.07
2019-02-04T02:35:17.860Z,24.18
2019-02-04T02:37:48.728Z,24.67
2019-02-04T02:43:15.571Z,25.75
2019-02-04T02:45:44.959Z,26.02
2019-02-04T02:48:19.357Z,25.60
2019-02-04T02:50:49.097Z,24.57
2019-02-04T02:53:19.725Z,24.03
2019-02-04T02:55:49.443Z,24.27
2019-02-04T02:58:19.130Z,24.00
2019-02-04T03:00:49.684Z,21.97
2019-02-04T03:03:19.444Z,23.40
2019-02-04T03:05:48.890Z,24.37
2019-02-04T03:08:19.632Z,25.47
2019-02-04T03:10:49.147Z,24.63
2019-02-04T03:13:19.348Z,23.83
2019-02-04T03:15:50.291Z,23.93
2019-02-04T03:18:20.711Z,23.50
2019-02-04T03:20:50.453Z,25.17
2019-02-04T03:23:19.830Z,25.53
2019-02-04T03:25:51.088Z,23.83
2019-02-04T03:28:20.915Z,23.77
2019-02-04T03:30:50.324Z,23.80
2019-02-04T03:33:19.714Z,23.93
2019-02-04T03:35:50.263Z,25.08
2019-02-04T03:38:22.674Z,23.47
2019-02-04T03:40:52.052Z,24.00
2019-02-04T03:43:22.583Z,24.37
2019-02-04T03:45:51.986Z,23.70
2019-02-04T03:48:22.120Z,24.45
2019-02-04T03:50:51.559Z,24.60
2019-02-04T03:53:21.970Z,23.37
2019-02-04T03:55:51.378Z,23.83
2019-02-04T03:58:21.465Z,23.40
2019-02-04T04:00:51.270Z,23.23
2019-02-04T04:03:20.693Z,23.57
2019-02-04T04:05:51.635Z,23.73
2019-02-04T04:08:21.642Z,22.27
2019-02-04T04:10:50.982Z,22.33
2019-02-04T04:13:20.422Z,22.03
2019-02-04T04:15:50.116Z,24.00
2019-02-04T04:18:20.629Z,23.13
2019-02-04T04:20:53.920Z,23.70
2019-02-04T04:23:24.077Z,24.83
2019-02-04T04:25:54.312Z,24.37
2019-02-04T04:28:24.055Z,24.27
2019-02-04T04:30:54.897Z,22.47
2019-02-04T04:33:27.286Z,23.73
2019-02-04T04:35:57.024Z,22.40
2019-02-04T04:38:26.424Z,23.00
2019-02-04T04:40:56.112Z,21.97
2019-02-04T04:43:26.659Z,21.23
2019-02-04T04:45:56.867Z,22.87
2019-02-04T04:48:29.612Z,20.83
2019-02-04T04:50:59.582Z,22.83
2019-02-04T04:53:29.072Z,23.00
2019-02-04T04:55:58.458Z,21.50
2019-02-04T04:58:31.039Z,23.70
2019-02-04T05:01:00.455Z,23.37
2019-02-04T05:03:29.826Z,22.20
2019-02-04T05:05:59.276Z,23.03
2019-02-04T05:08:29.355Z,22.77
2019-02-04T05:10:59.535Z,20.20
2019-02-04T05:13:29.148Z,22.83
2019-02-04T05:16:00.028Z,23.17
2019-02-04T05:18:37.747Z,23.83
2019-02-04T05:21:01.449Z,22.50
2019-02-04T05:23:30.853Z,22.80
2019-02-04T05:26:00.240Z,22.50
2019-02-04T05:28:31.571Z,23.90
2019-02-04T05:31:01.694Z,22.80
2019-02-04T05:33:31.710Z,22.17
2019-02-04T05:36:02.181Z,22.67
2019-02-04T05:38:31.516Z,22.33
2019-02-04T05:41:00.925Z,23.30
2019-02-04T05:43:30.366Z,22.37
2019-02-04T05:46:02.587Z,24.97
2019-02-04T05:48:35.060Z,25.37
2019-02-04T05:51:05.179Z,25.93
2019-02-04T05:53:34.571Z,22.52
2019-02-04T05:56:04.086Z,24.37
2019-02-04T05:58:34.256Z,25.53
2019-02-04T06:01:05.455Z,23.90
2019-02-04T06:03:37.293Z,22.98
2019-02-04T06:06:08.134Z,24.00
2019-02-04T06:08:37.666Z,24.73
2019-02-04T06:11:08.781Z,22.10
2019-02-04T06:13:39.856Z,25.03
2019-02-04T06:16:09.825Z,26.50
2019-02-04T06:18:40.628Z,33.23
2019-02-04T06:21:14.005Z,35.63
2019-02-04T06:23:44.100Z,37.97
2019-02-04T06:26:15.976Z,30.43
2019-02-04T06:28:45.392Z,35.47
2019-02-04T06:31:16.296Z,32.90
2019-02-04T06:33:46.193Z,32.63
2019-02-04T06:36:20.442Z,31.85
2019-02-04T06:38:49.848Z,27.73
2019-02-04T06:41:19.249Z,26.00
2019-02-04T06:43:51.693Z,25.67
2019-02-04T06:46:21.918Z,25.52
2019-02-04T06:48:55.146Z,24.63
2019-02-04T06:51:24.897Z,23.70
2019-02-04T06:53:54.945Z,23.23
2019-02-04T06:56:24.338Z,23.35
2019-02-04T06:58:54.143Z,31.60
2019-02-04T07:01:23.516Z,33.53
2019-02-04T07:03:54.504Z,30.77
2019-02-04T07:06:23.966Z,27.47
2019-02-04T07:08:54.705Z,26.57
2019-02-04T07:11:24.088Z,25.63
2019-02-04T07:13:54.217Z,27.83
2019-02-04T07:16:23.723Z,25.95
2019-02-04T07:18:54.153Z,25.70
2019-02-04T07:21:24.096Z,25.97
2019-02-04T07:23:54.204Z,24.10
2019-02-04T07:26:23.605Z,28.02
2019-02-04T07:28:54.391Z,24.50
2019-02-04T07:31:23.769Z,24.20
2019-02-04T07:33:53.217Z,24.30
2019-02-04T07:36:24.139Z,23.87
2019-02-04T07:38:53.484Z,24.83
2019-02-04T07:41:23.160Z,24.17
2019-02-04T07:43:52.604Z,24.77
2019-02-04T07:46:22.105Z,23.80
2019-02-04T07:48:52.406Z,21.80
2019-02-04T07:51:24.975Z,22.75
2019-02-04T07:53:56.779Z,23.77
2019-02-04T07:56:27.321Z,21.93
2019-02-04T07:58:57.337Z,22.57
2019-02-04T08:01:27.102Z,22.20
2019-02-04T08:03:57.410Z,23.07
2019-02-04T08:06:28.528Z,23.03
2019-02-04T08:08:57.945Z,23.40
2019-02-04T08:11:30.152Z,21.33
2019-02-04T08:14:00.226Z,21.50
2019-02-04T08:16:30.540Z,26.30
2019-02-04T08:18:59.882Z,31.23
2019-02-04T08:21:34.300Z,33.47
2019-02-04T08:24:09.451Z,30.20
2019-02-04T08:26:41.003Z,25.27
2019-02-04T08:29:11.900Z,19.20
2019-02-04T08:31:44.349Z,21.83
2019-02-04T08:34:14.389Z,21.20
2019-02-04T08:36:46.422Z,21.03
2019-02-04T08:39:16.804Z,22.25
2019-02-04T08:41:46.532Z,21.53
2019-02-04T08:44:19.809Z,23.60
2019-02-04T08:46:50.922Z,21.97
2019-02-04T08:49:21.873Z,22.33
2019-02-04T08:51:51.377Z,26.90
2019-02-04T08:54:22.524Z,26.47
2019-02-04T08:56:52.248Z,22.97
2019-02-04T08:59:22.352Z,20.40
2019-02-04T09:01:53.181Z,30.27
2019-02-04T09:04:22.592Z,30.95
2019-02-04T09:06:52.677Z,22.57
2019-02-04T09:09:22.472Z,21.80
2019-02-04T09:11:52.557Z,21.20
2019-02-04T09:14:22.000Z,21.70
2019-02-04T09:16:54.796Z,20.70
2019-02-04T09:19:26.031Z,21.12
2019-02-04T09:21:55.686Z,22.30
2019-02-04T09:24:25.468Z,21.10
2019-02-04T09:26:55.095Z,19.80
2019-02-04T09:29:24.503Z,19.73
2019-02-04T09:31:53.940Z,20.47
2019-02-04T09:34:23.310Z,21.80
2019-02-04T09:36:53.321Z,20.73
2019-02-04T09:39:23.153Z,22.85
2019-02-04T09:41:52.541Z,24.17
2019-02-04T09:44:22.943Z,23.25
2019-02-04T09:46:52.321Z,22.03
2019-02-04T09:49:21.863Z,20.60
2019-02-04T09:51:51.634Z,21.30
2019-02-04T09:54:25.772Z,20.45
2019-02-04T09:56:55.784Z,20.97
2019-02-04T09:59:26.798Z,20.00
2019-02-04T10:02:00.564Z,20.53
2019-02-04T10:04:32.203Z,21.13
2019-02-04T10:07:02.213Z,20.03
2019-02-04T10:09:35.026Z,19.50
2019-02-04T10:12:10.009Z,20.00
2019-02-04T10:14:40.115Z,81.73
2019-02-04T10:17:10.111Z,28.83
2019-02-04T10:19:39.826Z,23.17
2019-02-04T10:22:10.057Z,32.53
2019-02-04T10:24:40.649Z,19.50
2019-02-04T10:27:10.088Z,20.27
2019-02-04T10:29:48.713Z,19.73
2019-02-04T10:32:18.317Z,20.50
2019-02-04T10:34:48.734Z,20.70
2019-02-04T10:37:23.044Z,20.83
2019-02-04T10:39:53.196Z,19.53
2019-02-04T10:42:23.532Z,20.10
2019-02-04T10:44:56.590Z,17.43
2019-02-04T10:47:25.965Z,17.50
2019-02-04T10:49:56.510Z,17.47
2019-02-04T10:52:25.851Z,16.97
2019-02-04T10:54:56.356Z,18.60
2019-02-04T10:57:27.068Z,17.90
2019-02-04T10:59:57.212Z,18.03
2019-02-04T11:02:26.808Z,16.77
2019-02-04T11:04:56.775Z,16.27
2019-02-04T11:07:26.948Z,15.23
2019-02-04T11:09:56.666Z,17.20
2019-02-04T11:12:26.137Z,17.43
2019-02-04T11:14:55.988Z,18.03
2019-02-04T11:17:25.379Z,16.30
2019-02-04T11:19:55.332Z,16.53
2019-02-04T11:22:25.925Z,19.27
2019-02-04T11:24:56.583Z,17.77
2019-02-04T11:27:25.952Z,16.13
2019-02-04T11:29:56.728Z,17.27
2019-02-04T11:32:26.146Z,17.27
2019-02-04T11:34:55.556Z,16.83
2019-02-04T11:37:25.555Z,16.73
2019-02-04T11:39:55.390Z,17.00
2019-02-04T11:42:25.143Z,16.13
2019-02-04T11:44:55.455Z,17.10
2019-02-04T11:47:24.891Z,16.32
2019-02-04T11:49:54.303Z,17.10
2019-02-04T11:52:25.700Z,16.53
2019-02-04T11:54:55.958Z,16.37
2019-02-04T11:57:26.252Z,16.33
2019-02-04T11:59:57.665Z,15.97
2019-02-04T12:02:34.320Z,16.63
2019-02-04T12:04:58.647Z,17.13
2019-02-04T12:07:31.384Z,15.45
2019-02-04T12:10:02.079Z,15.37
2019-02-04T12:12:34.925Z,16.70
2019-02-04T12:15:08.764Z,16.33
2019-02-04T12:17:40.331Z,15.27
2019-02-04T12:20:12.081Z,15.57
2019-02-04T12:22:42.325Z,15.33
2019-02-04T12:25:15.502Z,16.70
2019-02-04T12:27:45.840Z,16.90
2019-02-04T12:30:26.112Z,17.28
2019-02-04T12:32:56.774Z,18.00
2019-02-04T12:35:31.246Z,18.10
2019-02-04T12:38:01.629Z,17.60
2019-02-04T12:40:34.020Z,17.30
2019-02-04T12:43:03.466Z,17.33
2019-02-04T12:45:34.659Z,15.55
2019-02-04T12:48:03.669Z,16.87
2019-02-04T12:50:35.012Z,16.80
2019-02-04T12:53:06.254Z,18.27
2019-02-04T12:55:37.311Z,17.30
2019-02-04T12:58:08.420Z,16.80
2019-02-04T13:00:40.846Z,16.63
2019-02-04T13:03:14.388Z,15.67
2019-02-04T13:05:49.315Z,17.80
2019-02-04T13:08:20.643Z,16.80
2019-02-04T13:10:50.946Z,15.17
2019-02-04T13:13:22.953Z,17.60
2019-02-04T13:15:53.144Z,17.37
2019-02-04T13:18:27.279Z,17.60
2019-02-04T13:21:03.352Z,16.47
2019-02-04T13:23:33.445Z,18.57
2019-02-04T13:26:02.957Z,16.93
2019-02-04T13:28:33.036Z,17.30
2019-02-04T13:31:02.945Z,18.97
2019-02-04T13:33:34.658Z,21.20
2019-02-04T13:36:04.928Z,21.50
2019-02-04T13:38:35.004Z,22.73
2019-02-04T13:41:08.060Z,23.70
2019-02-04T13:43:36.958Z,22.90
2019-02-04T13:46:06.515Z,22.50
2019-02-04T13:48:35.996Z,30.73
2019-02-04T13:51:05.587Z,25.00
2019-02-04T13:53:35.015Z,22.00
2019-02-04T13:56:05.539Z,23.37
2019-02-04T13:58:35.898Z,22.75
2019-02-04T14:01:08.303Z,24.65
2019-02-04T14:03:39.344Z,23.30
2019-02-04T14:06:10.644Z,22.20
2019-02-04T14:08:40.259Z,23.98
2019-02-04T14:11:09.952Z,24.70
2019-02-04T14:13:40.379Z,23.57
2019-02-04T14:16:13.420Z,22.42
2019-02-04T14:18:42.517Z,22.90
2019-02-04T14:21:13.109Z,25.40
2019-02-04T14:23:43.455Z,23.63
2019-02-04T14:26:14.932Z,23.47
2019-02-04T14:28:46.277Z,23.63
2019-02-04T14:31:18.961Z,24.00
2019-02-04T14:33:52.168Z,24.00
2019-02-04T14:36:22.943Z,26.27
2019-02-04T14:38:55.891Z,24.33
2019-02-04T14:41:30.290Z,23.63
2019-02-04T14:44:19.114Z,23.10
2019-02-04T14:47:10.821Z,22.83
2019-02-04T14:50:22.034Z,21.73
2019-02-04T14:53:27.923Z,21.67
2019-02-04T14:56:39.805Z,22.60
2019-02-04T14:59:30.227Z,21.80
2019-02-04T15:02:19.278Z,21.67
2019-02-04T15:05:05.158Z,23.20
2019-02-04T15:08:13.153Z,21.20
2019-02-04T15:11:18.103Z,23.10
2019-02-04T15:14:39.158Z,22.00
2019-02-04T15:17:58.351Z,23.07
2019-02-04T15:21:18.712Z,21.97
2019-02-04T15:24:08.748Z,20.20
2019-02-04T15:27:06.831Z,22.03
2019-02-04T15:29:53.574Z,21.87
2019-02-04T15:32:45.640Z,21.53
2019-02-04T15:36:11.417Z,23.45
2019-02-04T15:39:18.650Z,22.60
2019-02-04T15:42:35.100Z,22.93
2019-02-04T15:45:26.182Z,22.47
2019-02-04T15:48:12.798Z,21.70
2019-02-04T15:51:26.750Z,21.40
2019-02-04T15:54:01.075Z,21.43
2019-02-04T15:56:30.993Z,24.43
2019-02-04T15:59:01.017Z,24.73
2019-02-04T16:01:30.992Z,24.98
2019-02-04T16:04:01.902Z,24.00
2019-02-04T16:06:34.222Z,26.53
2019-02-04T16:09:05.017Z,26.60
2019-02-04T16:11:34.617Z,24.37
2019-02-04T16:14:04.054Z,24.23
2019-02-04T16:16:33.815Z,23.77
2019-02-04T16:19:03.394Z,24.47
2019-02-04T16:21:34.258Z,23.67
2019-02-04T16:24:04.693Z,24.07
2019-02-04T16:26:34.852Z,24.33
2019-02-04T16:29:05.092Z,26.50
2019-02-04T16:31:37.575Z,26.77
2019-02-04T16:34:07.531Z,26.33
2019-02-04T16:36:37.991Z,26.50
2019-02-04T16:39:11.236Z,27.77
2019-02-04T16:41:41.290Z,25.50
2019-02-04T16:44:11.271Z,27.00
2019-02-04T16:46:41.893Z,25.87
2019-02-04T16:49:13.401Z,27.13
2019-02-04T16:51:42.957Z,28.43
2019-02-04T16:54:12.472Z,26.37
2019-02-04T16:56:42.084Z,26.37
2019-02-04T16:59:13.304Z,25.80
2019-02-04T17:01:46.957Z,26.13
2019-02-04T17:04:17.312Z,26.00
2019-02-04T17:06:46.916Z,27.50
2019-02-04T17:09:18.458Z,28.05
2019-02-04T17:11:47.854Z,27.90
2019-02-04T17:14:18.663Z,25.43
2019-02-04T17:16:48.555Z,24.70
2019-02-04T17:19:19.187Z,62.98
2019-02-04T17:21:50.049Z,64.37
2019-02-04T17:24:19.433Z,53.90
2019-02-04T17:26:50.385Z,54.70
2019-02-04T17:29:21.578Z,40.28
2019-02-04T17:31:51.390Z,36.10
2019-02-04T17:34:23.378Z,36.77
2019-02-04T17:36:53.731Z,42.10
2019-02-04T17:39:24.749Z,32.03
2019-02-04T17:41:55.579Z,27.73
2019-02-04T17:44:25.560Z,26.77
2019-02-04T17:46:55.341Z,32.77
2019-02-04T17:49:24.699Z,31.50
2019-02-04T17:51:54.247Z,42.73
2019-02-04T17:54:24.536Z,36.33
2019-02-04T17:56:54.168Z,33.37
2019-02-04T17:59:24.989Z,30.37
2019-02-04T18:01:54.718Z,22.57
2019-02-04T18:04:25.167Z,22.20
2019-02-04T18:06:55.917Z,22.60
2019-02-04T18:09:25.584Z,25.03
2019-02-04T18:11:55.093Z,23.87
2019-02-04T18:14:25.283Z,24.00
2019-02-04T18:16:56.549Z,26.47
2019-02-04T18:19:27.080Z,29.97
2019-02-04T18:21:57.093Z,31.63
2019-02-04T18:24:28.228Z,30.00
2019-02-04T18:26:58.695Z,29.02
2019-02-04T18:29:30.960Z,30.47
2019-02-04T18:32:00.801Z,27.23
2019-02-04T18:34:32.675Z,29.87
2019-02-04T18:37:06.446Z,30.23
2019-02-04T18:39:39.167Z,30.07
2019-02-04T18:42:14.353Z,30.33
2019-02-04T18:44:44.231Z,23.83
2019-02-04T18:47:13.882Z,31.20
2019-02-04T18:49:43.282Z,24.50
2019-02-04T18:52:13.216Z,25.50
2019-02-04T18:54:43.563Z,25.73
2019-02-04T18:57:13.419Z,28.10
2019-02-04T18:59:45.175Z,39.60
2019-02-04T19:02:17.926Z,29.40
2019-02-04T19:04:50.040Z,29.73
2019-02-04T19:07:21.818Z,30.53
2019-02-04T19:09:52.087Z,29.65
2019-02-04T19:12:21.429Z,30.27
2019-02-04T19:14:51.422Z,36.07
2019-02-04T19:17:21.515Z,33.57
2019-02-04T19:19:50.919Z,31.13
2019-02-04T19:22:21.189Z,29.30
2019-02-04T19:24:51.350Z,43.00
2019-02-04T19:27:21.524Z,35.77
2019-02-04T19:29:51.198Z,32.80
2019-02-04T19:32:20.613Z,38.40
2019-02-04T19:34:50.719Z,43.50
2019-02-04T19:37:22.979Z,44.18
2019-02-04T19:39:53.494Z,39.97
2019-02-04T19:42:23.900Z,43.33
2019-02-04T19:44:55.820Z,41.60
2019-02-04T19:47:28.138Z,37.73
2019-02-04T19:49:58.085Z,35.07
2019-02-04T19:52:28.903Z,36.38
2019-02-04T19:55:00.827Z,42.13
2019-02-04T19:57:32.466Z,38.83
2019-02-04T20:00:04.798Z,44.10
2019-02-04T20:02:34.336Z,70.70
2019-02-04T20:05:04.512Z,68.72
2019-02-04T20:07:34.084Z,57.10
2019-02-04T20:10:04.529Z,65.57
2019-02-04T20:12:35.326Z,52.57
2019-02-04T20:15:08.188Z,39.70
2019-02-04T20:17:40.219Z,32.40
2019-02-04T20:20:09.973Z,32.40
2019-02-04T20:22:39.411Z,30.47
2019-02-04T20:25:13.414Z,29.40
2019-02-04T20:27:43.096Z,32.33
2019-02-04T20:30:17.318Z,27.67
2019-02-04T20:32:47.058Z,28.23
2019-02-04T20:35:18.604Z,26.93
2019-02-04T20:37:48.551Z,32.63
2019-02-04T20:40:20.891Z,29.30
2019-02-04T20:42:51.251Z,33.17
2019-02-04T20:45:23.326Z,39.90
2019-02-04T20:47:52.959Z,41.13
2019-02-04T20:50:24.858Z,35.90
2019-02-04T20:52:54.348Z,39.57
2019-02-04T20:55:24.619Z,39.17
2019-02-04T20:57:54.145Z,34.90
2019-02-04T21:00:25.893Z,36.00
2019-02-04T21:02:55.693Z,33.07
2019-02-04T21:05:25.605Z,41.57
2019-02-04T21:07:56.171Z,39.33
2019-02-04T21:10:26.217Z,40.03
2019-02-04T21:12:56.560Z,36.57
2019-02-04T21:15:26.304Z,39.58
2019-02-04T21:17:56.489Z,37.13
2019-02-04T21:20:28.192Z,31.20
2019-02-04T21:22:58.506Z,32.07
2019-02-04T21:25:28.216Z,32.50
2019-02-04T21:27:57.928Z,33.97
2019-02-04T21:30:33.343Z,33.07
2019-02-04T21:33:02.717Z,35.57
2019-02-04T21:35:32.302Z,33.13
2019-02-04T21:38:01.957Z,32.97
2019-02-04T21:40:31.860Z,31.35
2019-02-04T21:43:01.265Z,32.87
2019-02-04T21:45:31.226Z,32.42
2019-02-04T21:48:00.619Z,30.30
2019-02-04T21:50:31.757Z,29.87
2019-02-04T21:53:01.577Z,31.40
2019-02-04T21:55:32.687Z,26.65
2019-02-04T21:58:02.318Z,32.13
2019-02-04T22:00:37.348Z,26.15
2019-02-04T22:03:07.637Z,27.73
2019-02-04T22:05:36.980Z,27.43
2019-02-04T22:08:07.322Z,27.70
2019-02-04T22:10:40.596Z,27.87
2019-02-04T22:13:10.899Z,26.27
2019-02-04T22:15:40.693Z,28.40
2019-02-04T22:18:10.077Z,26.83
2019-02-04T22:20:39.865Z,27.27
2019-02-04T22:23:10.217Z,27.50
2019-02-04T22:25:39.928Z,26.00
2019-02-04T22:28:09.321Z,25.50
2019-02-04T22:30:40.602Z,25.87
2019-02-04T22:33:09.989Z,26.97
2019-02-04T22:35:40.314Z,25.80
2019-02-04T22:38:11.042Z,26.37
2019-02-04T22:40:41.276Z,26.60
2019-02-04T22:43:10.598Z,28.27
2019-02-04T22:45:41.347Z,24.90
2019-02-04T22:48:11.245Z,27.00
2019-02-04T22:50:40.965Z,27.40
2019-02-04T22:53:10.368Z,27.97
2019-02-04T22:55:40.485Z,28.27
2019-02-04T22:58:10.675Z,29.00
2019-02-04T23:01:04.356Z,30.10
2019-02-04T23:03:34.291Z,28.80
2019-02-04T23:06:04.713Z,26.50
2019-02-04T23:08:34.660Z,26.05
2019-02-04T23:11:04.020Z,28.75
2019-02-04T23:13:33.414Z,27.77
2019-02-04T23:16:02.818Z,25.70
2019-02-04T23:18:32.220Z,23.00
2019-02-04T23:21:02.144Z,24.70
2019-02-04T23:23:31.993Z,25.00
2019-02-04T23:26:03.744Z,27.00
2019-02-04T23:28:33.788Z,26.57
2019-02-04T23:31:03.201Z,25.52
2019-02-04T23:33:34.093Z,27.30
2019-02-04T23:36:04.961Z,27.97
2019-02-04T23:38:34.749Z,26.52
2019-02-04T23:41:04.557Z,26.33
2019-02-04T23:43:33.950Z,27.67
2019-02-04T23:46:03.383Z,28.53
2019-02-04T23:48:32.777Z,28.70
2019-02-04T23:51:02.175Z,26.82
2019-02-04T23:53:31.684Z,28.40
2019-02-04T23:56:01.571Z,29.30
2019-02-04T23:58:30.957Z,29.07
